Time;durP1;ratioP1;P1;durP2;ratioP2;P2;SDS_P1;SDS_P2;PMS_P1;PMS_P2;Temp;Humidity;BMP_temperature;BMP_pressure;BME280_temperature;BME280_humidity;BME280_pressure;Samples;Min_cycle;Max_cycle;Signal;HPM_P1;HPM_P2
2021/07/25 00:00:43;;;;;;;5.35;2.30;;;;;;;17.16;62.81;98989.50;6125830;23;20087;-76
2021/07/25 00:03:09;;;;;;;2.40;2.20;;;;;;;17.17;63.06;99001.13;6125892;23;20029;-76
2021/07/25 00:05:35;;;;;;;2.30;2.10;;;;;;;17.15;63.00;99009.44;6151793;23;20021;-78
2021/07/25 00:08:01;;;;;;;5.47;2.40;;;;;;;17.04;63.19;99017.03;6152067;23;20057;-77
2021/07/25 00:10:28;;;;;;;4.78;2.55;;;;;;;16.88;63.11;99031.41;6078363;23;20029;-76
2021/07/25 00:12:54;;;;;;;3.03;2.15;;;;;;;16.78;63.85;99022.66;6101735;23;20021;-76
2021/07/25 00:15:20;;;;;;;2.97;2.15;;;;;;;16.66;63.93;99020.28;6125366;23;20420;-76
2021/07/25 00:17:46;;;;;;;2.60;2.40;;;;;;;16.55;64.07;99023.31;6125877;23;20096;-77
2021/07/25 00:20:12;;;;;;;4.65;2.47;;;;;;;16.48;64.24;99022.31;6151683;23;20028;-78
2021/07/25 00:22:39;;;;;;;4.82;2.40;;;;;;;16.54;63.88;99027.00;6125846;23;20029;-77
2021/07/25 00:25:08;;;;;;;5.70;2.40;;;;;;;16.47;64.41;99028.69;6151467;22;20025;-76
2021/07/25 00:27:41;;;;;;;2.80;2.28;;;;;;;16.38;64.84;99027.84;6151701;22;20024;-77
2021/07/25 00:30:11;;;;;;;2.60;2.40;;;;;;;16.34;64.39;99031.91;6079390;23;20025;-76
2021/07/25 00:32:38;;;;;;;3.47;2.67;;;;;;;16.31;64.81;99042.16;6101569;23;20452;-76
2021/07/25 00:35:04;;;;;;;3.97;2.35;;;;;;;16.33;64.48;99045.56;6101692;23;20017;-76
2021/07/25 00:37:34;;;;;;;3.55;2.45;;;;;;;16.38;64.42;99037.78;6152182;23;20397;-75
2021/07/25 00:40:00;;;;;;;2.90;2.60;;;;;;;16.40;64.38;99033.09;6101569;23;20040;-75
2021/07/25 00:42:36;;;;;;;3.20;2.40;;;;;;;16.36;64.21;99039.81;6152040;23;20026;-77
2021/07/25 00:45:03;;;;;;;2.78;2.25;;;;;;;16.39;64.37;99047.56;6126030;23;20483;-76
2021/07/25 00:47:29;;;;;;;3.53;2.40;;;;;;;16.50;63.52;99033.75;6151726;23;20361;-76
2021/07/25 00:49:55;;;;;;;2.60;2.40;;;;;;;16.49;63.90;99042.88;6125767;23;20018;-75
2021/07/25 00:52:20;;;;;;;3.50;2.38;;;;;;;16.36;64.39;99056.00;6152172;23;20025;-75
2021/07/25 00:54:46;;;;;;;7.40;2.95;;;;;;;16.35;64.33;99048.91;6125880;23;20358;-76
2021/07/25 00:57:12;;;;;;;2.83;2.50;;;;;;;16.45;63.94;99049.59;6126094;23;20024;-75
2021/07/25 00:59:38;;;;;;;3.90;2.45;;;;;;;16.45;64.31;99050.44;6125693;23;20298;-76
2021/07/25 01:02:04;;;;;;;2.65;2.38;;;;;;;16.33;64.48;99062.59;6151580;23;20026;-75
2021/07/25 01:04:46;;;;;;;2.88;2.40;;;;;;;16.32;64.54;99060.03;6151624;22;20055;-75
2021/07/25 01:07:28;;;;;;;4.25;2.60;;;;;;;16.24;64.97;99067.09;6102845;23;20383;-76
2021/07/25 01:09:57;;;;;;;3.88;2.60;;;;;;;16.12;65.11;99081.91;6101825;23;20026;-75
2021/07/25 01:12:24;;;;;;;;;;;;;;;16.07;65.86;99078.88;6126827;23;20018;-76
2021/07/25 01:14:50;;;;;;;19.40;3.13;;;;;;;16.00;66.00;99083.22;6151718;22;19912;-75
2021/07/25 01:17:35;;;;;;;3.15;2.58;;;;;;;15.96;66.45;99092.66;6101314;23;20024;-76
2021/07/25 01:20:06;;;;;;;2.65;2.40;;;;;;;15.86;66.57;99091.94;6125689;23;20017;-77
2021/07/25 01:22:37;;;;;;;5.25;2.50;;;;;;;15.82;67.00;99102.19;6101315;23;20079;-75
2021/07/25 01:25:04;;;;;;;3.15;2.85;;;;;;;15.86;66.92;99091.94;6101337;23;20078;-75
2021/07/25 01:27:44;;;;;;;2.85;2.55;;;;;;;15.99;66.27;99097.72;6102188;23;20096;-76
2021/07/25 01:30:12;;;;;;;2.88;2.58;;;;;;;15.93;67.06;99114.53;6101872;23;20044;-75
2021/07/25 01:32:39;;;;;;;2.90;2.58;;;;;;;15.88;67.24;99117.72;6125424;23;20021;-77
2021/07/25 01:35:05;;;;;;;4.97;2.70;;;;;;;15.90;67.29;99122.94;6101500;23;20025;-76
2021/07/25 01:37:31;;;;;;;2.53;2.33;;;;;;;15.86;67.48;99113.50;6149922;23;20059;-78
2021/07/25 01:39:57;;;;;;;3.28;2.80;;;;;;;15.93;67.29;99114.53;6077523;23;20041;-77
2021/07/25 01:42:27;;;;;;;3.35;2.83;;;;;;;15.94;67.76;99118.91;6228767;23;20090;-77
2021/07/25 01:44:53;;;;;;;3.95;2.75;;;;;;;16.08;67.57;99115.59;6149958;23;20017;-76
2021/07/25 01:47:19;;;;;;;4.70;2.70;;;;;;;16.02;67.64;99124.34;6151357;23;20033;-77
2021/07/25 01:49:45;;;;;;;5.70;2.80;;;;;;;16.17;67.10;99130.81;6101371;23;20017;-76
2021/07/25 01:52:11;;;;;;;4.57;2.67;;;;;;;16.19;67.48;99134.19;6151424;23;20021;-77
2021/07/25 01:54:37;;;;;;;4.82;2.88;;;;;;;16.21;67.68;99139.41;6151489;23;20025;-77
2021/07/25 01:57:03;;;;;;;2.78;2.53;;;;;;;16.23;67.74;99132.00;6151374;23;20026;-77
2021/07/25 01:59:29;;;;;;;3.53;2.88;;;;;;;16.19;67.81;99136.88;6151941;23;20358;-77
2021/07/25 02:01:54;;;;;;;4.43;2.60;;;;;;;16.22;67.48;99147.34;6100979;23;20104;-77
2021/07/25 02:04:20;;;;;;;4.15;2.90;;;;;;;16.30;67.49;99143.81;6149975;23;20028;-76
2021/07/25 02:06:46;;;;;;;2.95;2.38;;;;;;;16.36;67.51;99155.78;6151287;23;20014;-76
2021/07/25 02:09:13;;;;;;;3.38;2.60;;;;;;;16.34;67.31;99161.38;6150825;23;20087;-77
2021/07/25 02:11:39;;;;;;;4.18;2.47;;;;;;;16.32;67.48;99146.34;6151268;23;20022;-76
2021/07/25 02:14:05;;;;;;;2.78;2.53;;;;;;;16.26;67.68;99167.59;6150693;23;20066;-77
2021/07/25 02:16:31;;;;;;;2.92;2.70;;;;;;;16.19;68.21;99166.53;6125396;23;20107;-77
2021/07/25 02:18:57;;;;;;;2.78;2.58;;;;;;;16.31;67.74;99174.34;6151221;23;20017;-77
2021/07/25 02:21:23;;;;;;;4.07;2.40;;;;;;;16.29;68.32;99173.66;6151071;23;20473;-77
2021/07/25 02:23:49;;;;;;;7.82;2.50;;;;;;;16.36;68.04;99166.59;6149443;23;20025;-77
2021/07/25 02:26:15;;;;;;;2.83;2.47;;;;;;;16.50;67.51;99171.34;6151455;23;20057;-76
2021/07/25 02:28:40;;;;;;;3.38;2.50;;;;;;;16.49;67.64;99175.06;6151007;23;20068;-76
2021/07/25 02:31:06;;;;;;;3.65;2.65;;;;;;;16.53;67.71;99173.72;6151030;23;20083;-76
2021/07/25 02:33:32;;;;;;;6.75;2.50;;;;;;;16.69;67.47;99181.84;6125004;23;20334;-76
2021/07/25 02:35:58;;;;;;;3.47;2.63;;;;;;;16.92;66.88;99181.25;6149481;23;20061;-77
2021/07/25 02:38:24;;;;;;;3.25;2.63;;;;;;;17.05;66.77;99192.41;6151719;22;20023;-77
2021/07/25 02:40:50;;;;;;;2.95;2.45;;;;;;;17.06;67.29;99191.38;6126314;23;20018;-76
2021/07/25 02:43:15;;;;;;;4.20;2.60;;;;;;;17.16;66.94;99194.78;6152494;23;20025;-76
2021/07/25 02:45:41;;;;;;;3.72;2.78;;;;;;;17.21;66.77;99202.38;6152173;23;20021;-77
2021/07/25 02:48:07;;;;;;;4.50;2.50;;;;;;;17.15;66.84;99190.38;6150426;23;20076;-77
2021/07/25 02:50:33;;;;;;;2.72;2.40;;;;;;;17.21;66.71;99200.50;6078287;23;20025;-77
2021/07/25 02:52:59;;;;;;;5.13;2.50;;;;;;;17.20;66.94;99201.53;6152022;23;20025;-77
2021/07/25 02:55:25;;;;;;;2.70;2.50;;;;;;;17.26;66.92;99199.16;6101854;23;20018;-78
2021/07/25 02:57:51;;;;;;;6.97;2.60;;;;;;;17.38;66.50;99197.81;6152333;23;20044;-77
2021/07/25 03:00:17;;;;;;;5.03;2.80;;;;;;;17.40;66.33;99201.16;6150765;23;20014;-78
2021/07/25 03:02:43;;;;;;;6.57;2.40;;;;;;;17.45;65.87;99215.88;6152338;23;20105;-77
2021/07/25 03:05:09;;;;;;;2.72;2.53;;;;;;;17.18;66.75;99203.53;6152322;23;20065;-77
2021/07/25 03:07:35;;;;;;;3.83;2.40;;;;;;;17.23;66.53;99212.00;6126504;23;20014;-77
2021/07/25 03:10:01;;;;;;;5.28;2.58;;;;;;;17.35;66.08;99215.19;6101776;23;20022;-77
2021/07/25 03:12:27;;;;;;;5.53;2.42;;;;;;;17.36;66.24;99227.69;6152221;23;20464;-78
2021/07/25 03:14:53;;;;;;;2.75;2.33;;;;;;;17.32;66.58;99225.50;6152266;23;20025;-77
2021/07/25 03:17:19;;;;;;;3.45;2.63;;;;;;;17.36;66.43;99216.03;6152265;23;20483;-77
2021/07/25 03:19:44;;;;;;;2.30;2.13;;;;;;;17.45;66.10;99225.81;6152129;22;20041;-77
2021/07/25 03:22:11;;;;;;;3.40;2.42;;;;;;;17.62;65.92;99227.50;6152144;23;20448;-77
2021/07/25 03:24:37;;;;;;;3.53;2.70;;;;;;;17.68;65.93;99224.13;6150315;22;20387;-77
2021/07/25 03:27:03;;;;;;;5.13;2.03;;;;;;;17.76;65.21;99231.41;6152131;23;20053;-78
2021/07/25 03:29:29;;;;;;;3.00;2.70;;;;;;;17.75;65.25;99236.94;6150637;23;20022;-76
2021/07/25 03:31:55;;;;;;;2.85;2.15;;;;;;;17.88;64.85;99237.31;6126321;23;20101;-77
2021/07/25 03:34:21;;;;;;;3.22;2.55;;;;;;;18.02;64.50;99239.31;6126074;23;20032;-77
2021/07/25 03:36:47;;;;;;;2.55;2.33;;;;;;;18.12;63.83;99236.38;6152456;23;20017;-77
2021/07/25 03:39:15;;;;;;;5.03;2.15;;;;;;;18.06;64.22;99240.66;6126391;23;20021;-76
2021/07/25 03:41:40;;;;;;;2.67;2.47;;;;;;;18.06;64.10;99246.06;6126400;23;20403;-76
2021/07/25 03:44:06;;;;;;;2.25;2.10;;;;;;;18.05;64.34;99238.94;6152062;23;20021;-78
2021/07/25 03:46:33;;;;;;;3.00;2.40;;;;;;;18.25;63.74;99244.81;6150255;23;20017;-77
2021/07/25 03:48:59;;;;;;;2.75;2.20;;;;;;;18.29;63.74;99245.31;6151830;23;20108;-77
2021/07/25 03:51:25;;;;;;;6.18;2.60;;;;;;;18.45;63.52;99256.06;6101670;23;20387;-78
2021/07/25 03:53:51;;;;;;;3.13;2.40;;;;;;;18.46;63.52;99246.91;6077819;23;20041;-78
2021/07/25 03:56:20;;;;;;;3.63;2.55;;;;;;;18.55;63.05;99253.16;6152543;22;20021;-79
2021/07/25 03:58:45;;;;;;;2.17;1.90;;;;;;;18.49;63.10;99251.13;6125857;23;20021;-79
2021/07/25 04:01:11;;;;;;;3.38;2.45;;;;;;;18.61;62.59;99260.56;6151736;23;20104;-79
2021/07/25 04:03:37;;;;;;;3.10;2.35;;;;;;;18.69;62.46;99263.22;6077784;23;20102;-80
2021/07/25 04:06:03;;;;;;;2.75;2.20;;;;;;;18.79;62.21;99263.03;6126182;23;20028;-77
2021/07/25 04:08:29;;;;;;;4.03;2.45;;;;;;;18.98;61.90;99273.41;6126400;23;20018;-77
2021/07/25 04:10:55;;;;;;;3.55;2.20;;;;;;;19.13;61.67;99279.75;6151991;23;20144;-77
2021/07/25 04:13:21;;;;;;;2.30;2.10;;;;;;;18.98;61.70;99273.41;6152525;23;20045;-79
2021/07/25 04:15:47;;;;;;;6.80;2.40;;;;;;;19.10;61.43;99271.97;6101903;23;20041;-77
2021/07/25 04:18:14;;;;;;;2.45;2.25;;;;;;;19.34;60.46;99281.00;6127278;23;20024;-78
2021/07/25 04:20:40;;;;;;;5.03;2.13;;;;;;;19.58;60.60;99271.81;6152412;23;20053;-80
2021/07/25 04:23:05;;;;;;;3.38;2.10;;;;;;;19.72;59.71;99275.63;6151962;23;20340;-78
2021/07/25 04:25:34;;;;;;;2.13;2.00;;;;;;;19.77;59.75;99284.06;6126577;23;20345;-78
2021/07/25 04:28:01;;;;;;;4.10;2.40;;;;;;;20.00;59.45;99294.84;6126148;23;20021;-77
2021/07/25 04:30:27;;;;;;;5.82;2.60;;;;;;;19.96;58.99;99275.38;6125975;23;20022;-79
2021/07/25 04:32:54;;;;;;;2.97;1.95;;;;;;;20.29;58.45;99283.19;6150351;23;20100;-79
2021/07/25 04:35:21;;;;;;;4.00;2.00;;;;;;;20.56;58.04;99301.56;6126333;23;20018;-81
2021/07/25 04:37:53;;;;;;;2.90;2.00;;;;;;;20.76;57.06;99290.13;6150166;23;20104;-78
2021/07/25 04:40:19;;;;;;;2.92;2.10;;;;;;;20.95;56.93;99300.41;6205084;23;20070;-79
2021/07/25 04:42:58;;;;;;;2.10;1.90;;;;;;;21.14;55.76;99292.66;6101566;23;20017;-77
2021/07/25 04:45:37;;;;;;;3.35;2.00;;;;;;;21.26;54.98;99288.41;6102079;23;20013;-78
2021/07/25 04:48:47;;;;;;;3.05;2.00;;;;;;;21.66;53.91;99305.16;6126008;23;20100;-77
2021/07/25 04:51:14;;;;;;;2.17;1.88;;;;;;;21.53;54.61;99309.44;6151732;22;20026;-75
2021/07/25 04:53:40;;;;;;;2.90;1.90;;;;;;;21.62;54.24;99303.84;6126854;23;20027;-78
2021/07/25 04:56:11;;;;;;;9.20;2.45;;;;;;;21.67;53.47;99301.41;6126086;23;20045;-78
2021/07/25 04:58:53;;;;;;;5.20;2.38;;;;;;;21.45;54.01;99306.00;6150548;23;20326;-80
2021/07/25 05:01:31;;;;;;;3.80;2.10;;;;;;;21.61;53.97;99313.06;6126367;23;20517;-79
2021/07/25 05:03:59;;;;;;;2.83;1.75;;;;;;;21.58;54.26;99317.84;6150147;23;20067;-78
2021/07/25 05:06:25;;;;;;;4.72;2.05;;;;;;;21.55;53.39;99312.81;6125520;23;20075;-78
2021/07/25 05:08:51;;;;;;;2.72;1.80;;;;;;;21.39;52.98;99323.91;6228956;23;20337;-79
2021/07/25 05:11:21;;;;;;;2.83;1.75;;;;;;;21.44;52.61;99318.75;6152038;23;20025;-76
2021/07/25 05:13:48;;;;;;;4.20;1.90;;;;;;;21.49;52.98;99319.00;6102279;23;20025;-76
2021/07/25 05:16:30;;;;;;;1.95;1.85;;;;;;;21.24;53.67;99321.22;6125591;23;20025;-78
2021/07/25 05:19:14;;;;;;;5.53;2.72;;;;;;;21.46;53.41;99319.41;6054085;23;20017;-79
2021/07/25 05:21:47;;;;;;;5.15;1.90;;;;;;;21.63;53.34;99324.59;6151315;22;20022;-78
2021/07/25 05:24:13;;;;;;;2.72;2.15;;;;;;;21.57;53.29;99321.59;6126009;22;20017;-81
2021/07/25 05:26:39;;;;;;;2.47;1.58;;;;;;;21.29;53.96;99336.97;6151761;23;20356;-76
2021/07/25 05:29:05;;;;;;;2.72;2.13;;;;;;;21.23;53.81;99337.72;6125354;22;20079;-75
2021/07/25 05:31:32;;;;;;;3.00;1.65;;;;;;;21.13;53.91;99345.34;6125473;23;20013;-76
2021/07/25 05:33:58;;;;;;;3.30;1.80;;;;;;;21.38;52.95;99338.56;6124796;23;20075;-78
2021/07/25 05:36:24;;;;;;;2.65;1.90;;;;;;;21.46;52.23;99335.72;6150607;23;20025;-77
2021/07/25 05:38:50;;;;;;;4.20;1.58;;;;;;;21.41;52.08;99332.75;6151014;23;20459;-80
2021/07/25 05:41:16;;;;;;;3.72;1.65;;;;;;;21.52;52.44;99337.69;6100809;23;20014;-77
2021/07/25 05:43:42;;;;;;;5.70;1.70;;;;;;;21.41;52.56;99338.19;6151089;23;20018;-75
2021/07/25 05:46:08;;;;;;;3.17;1.95;;;;;;;21.40;52.47;99339.22;6124632;23;20104;-74
2021/07/25 05:48:34;;;;;;;2.15;1.70;;;;;;;21.42;52.69;99350.75;6100720;23;20014;-76
2021/07/25 05:51:02;;;;;;;1.75;1.52;;;;;;;21.40;53.06;99349.22;6150482;23;20022;-76
2021/07/25 05:53:31;;;;;;;4.47;1.77;;;;;;;21.33;52.30;99352.75;6150946;23;20353;-76
2021/07/25 05:55:57;;;;;;;4.20;1.60;;;;;;;21.49;52.05;99348.09;6150792;23;20092;-78
2021/07/25 05:58:23;;;;;;;1.70;1.60;;;;;;;21.88;51.26;99355.78;6150615;23;20090;-78
2021/07/25 06:00:49;;;;;;;3.60;2.67;;;;;;;22.03;50.29;99342.94;6253545;22;20092;-76
2021/07/25 06:03:14;;;;;;;12.13;1.98;;;;;;;22.16;49.62;99350.44;6100354;23;20025;-82
2021/07/25 06:05:40;;;;;;;11.13;1.90;;;;;;;22.04;49.92;99350.09;6150491;23;20048;-78
2021/07/25 06:08:07;;;;;;;2.45;1.60;;;;;;;22.05;50.38;99354.50;6124629;23;20017;-78
2021/07/25 06:10:34;;;;;;;4.13;1.67;;;;;;;22.13;49.22;99347.22;6100535;23;20029;-78
2021/07/25 06:13:02;;;;;;;3.20;1.40;;;;;;;22.11;48.86;99373.78;6149992;23;20029;-76
2021/07/25 06:15:28;;;;;;;2.67;1.50;;;;;;;21.94;48.63;99367.78;6125206;23;20025;-89
2021/07/25 06:17:55;;;;;;;2.80;1.50;;;;;;;21.98;48.58;99360.91;6076775;23;20021;-78
2021/07/25 06:20:21;;;;;;;7.57;1.70;;;;;;;22.17;48.94;99364.88;6150259;23;20040;-77
2021/07/25 06:22:51;;;;;;;3.50;1.50;;;;;;;22.10;48.90;99366.66;6124742;23;20100;-74
2021/07/25 06:25:20;;;;;;;5.47;1.48;;;;;;;22.45;48.05;99364.88;6048096;23;20507;-76
2021/07/25 06:27:51;;;;;;;4.63;1.17;;;;;;;22.20;47.63;99364.50;6119895;23;20025;-78
2021/07/25 06:30:17;;;;;;;1.92;1.50;;;;;;;22.19;48.44;99368.22;6095399;23;20022;-75
2021/07/25 06:32:56;;;;;;;2.17;1.67;;;;;;;22.90;46.60;99371.63;6119640;23;20010;-76
2021/07/25 06:35:26;;;;;;;;;;;;;;;23.17;45.36;99349.97;6121104;23;20018;-76
2021/07/25 06:37:52;;;;;;;2.22;1.40;;;;;;;22.71;45.85;99375.94;6120513;23;19913;-76
2021/07/25 06:40:18;;;;;;;5.47;1.40;;;;;;;22.65;46.94;99378.66;6119631;23;20104;-77
2021/07/25 06:42:44;;;;;;;7.13;1.58;;;;;;;22.89;46.89;99369.13;6119955;23;20021;-77
2021/07/25 06:45:10;;;;;;;4.82;1.23;;;;;;;23.11;46.00;99369.91;6119598;23;20446;-77
2021/07/25 06:47:36;;;;;;;3.42;1.30;;;;;;;23.02;45.77;99374.69;6121085;23;20026;-76
2021/07/25 06:50:02;;;;;;;2.72;1.65;;;;;;;22.88;44.99;99373.75;6093624;23;20022;-78
2021/07/25 06:52:28;;;;;;;3.22;1.30;;;;;;;22.61;45.74;99377.34;6071071;23;20029;-77
2021/07/25 06:54:54;;;;;;;2.83;1.58;;;;;;;22.44;45.91;99371.38;6095322;23;20101;-76
2021/07/25 06:57:20;;;;;;;6.05;1.60;;;;;;;22.41;46.73;99378.03;6120414;23;20022;-77
2021/07/25 06:59:46;;;;;;;1.88;1.38;;;;;;;22.71;45.88;99383.28;6120520;23;20475;-76
2021/07/25 07:02:12;;;;;;;1.30;1.20;;;;;;;22.91;43.95;99384.28;6120266;23;20026;-77
2021/07/25 07:04:37;;;;;;;4.00;1.40;;;;;;;22.86;42.48;99381.25;6120061;23;20021;-79
2021/07/25 07:07:05;;;;;;;3.00;1.20;;;;;;;22.85;42.37;99385.03;6119312;23;20397;-77
2021/07/25 07:09:31;;;;;;;4.30;1.10;;;;;;;23.07;41.77;99388.53;6120881;23;20022;-82
2021/07/25 07:11:59;;;;;;;5.35;1.13;;;;;;;23.22;41.84;99391.13;6094199;23;20107;-76
2021/07/25 07:14:25;;;;;;;;;;;;;;;23.35;42.14;99391.16;6095401;23;20022;-77
2021/07/25 07:16:51;;;;;;;6.30;1.30;;;;;;;23.42;42.24;99386.59;6114430;23;19935;-79
2021/07/25 07:19:17;;;;;;;1.42;1.25;;;;;;;23.38;41.27;99390.75;6118105;23;20082;-76
2021/07/25 07:21:43;;;;;;;1.60;1.27;;;;;;;23.24;41.19;99395.34;6118912;23;20095;-77
2021/07/25 07:24:08;;;;;;;1.55;1.45;;;;;;;23.56;41.45;99394.81;6071770;23;20064;-76
2021/07/25 07:26:34;;;;;;;1.30;1.20;;;;;;;23.76;40.86;99387.53;6151844;23;20321;-76
2021/07/25 07:29:00;;;;;;;3.20;1.42;;;;;;;23.66;40.82;99392.53;6151393;23;20021;-77
2021/07/25 07:31:26;;;;;;;2.65;1.20;;;;;;;23.38;40.57;99395.38;6101420;23;20349;-76
2021/07/25 07:33:54;;;;;;;1.95;1.42;;;;;;;23.82;40.42;99391.34;6148428;23;20079;-76
2021/07/25 07:36:19;;;;;;;2.05;1.30;;;;;;;24.09;39.85;99386.75;6101534;23;20025;-77
2021/07/25 07:38:45;;;;;;;1.88;1.73;;;;;;;24.06;40.27;99392.63;6152067;23;20414;-76
2021/07/25 07:41:11;;;;;;;1.60;1.45;;;;;;;23.88;39.92;99385.91;6151272;23;20025;-78
2021/07/25 07:43:38;;;;;;;2.17;1.05;;;;;;;23.92;39.73;99392.63;6125106;23;20498;-77
2021/07/25 07:46:04;;;;;;;4.07;1.50;;;;;;;24.26;39.48;99390.75;6150843;23;20022;-79
2021/07/25 07:48:30;;;;;;;1.67;1.38;;;;;;;24.78;40.04;99396.38;6150448;23;20150;-78
2021/07/25 07:50:55;;;;;;;1.40;1.30;;;;;;;25.50;39.11;99395.34;6101271;23;20080;-78
2021/07/25 07:53:33;;;;;;;5.35;1.40;;;;;;;25.97;36.57;99408.78;6103272;23;20017;-80
2021/07/25 07:55:59;;;;;;;2.70;1.20;;;;;;;25.68;36.33;99398.16;6076831;23;20032;-79
2021/07/25 07:58:24;;;;;;;2.67;1.25;;;;;;;25.48;36.25;99396.63;6151474;23;20026;-78
2021/07/25 08:00:50;;;;;;;4.55;1.17;;;;;;;25.25;35.74;99402.59;6124931;23;20047;-78
2021/07/25 08:03:16;;;;;;;1.58;1.48;;;;;;;25.14;36.03;99406.84;6150553;22;20024;-78
2021/07/25 08:05:42;;;;;;;2.97;1.23;;;;;;;25.48;36.32;99397.44;6125174;23;20021;-77
2021/07/25 08:08:08;;;;;;;1.83;1.05;;;;;;;25.54;34.85;99387.50;6100522;23;20025;-78
2021/07/25 08:10:34;;;;;;;2.83;1.20;;;;;;;25.22;36.24;99406.59;6124888;23;20033;-78
2021/07/25 08:12:59;;;;;;;1.42;1.33;;;;;;;24.71;37.71;99421.00;6125017;23;20025;-74
2021/07/25 08:15:25;;;;;;;3.80;1.40;;;;;;;24.60;37.70;99416.22;6150807;23;20029;-76
2021/07/25 08:17:51;;;;;;;2.85;1.30;;;;;;;24.82;37.77;99403.94;6150379;23;20021;-78
2021/07/25 08:20:17;;;;;;;2.17;1.50;;;;;;;25.37;36.02;99407.19;6124857;23;20151;-79
2021/07/25 08:22:43;;;;;;;1.38;1.25;;;;;;;25.59;35.67;99404.13;6100315;23;20025;-80
2021/07/25 08:25:09;;;;;;;1.38;1.27;;;;;;;25.91;35.69;99405.88;6100055;23;20083;-79
2021/07/25 08:27:36;;;;;;;3.33;1.50;;;;;;;26.20;34.60;99419.97;6124820;23;20024;-78
2021/07/25 08:30:02;;;;;;;1.63;1.15;;;;;;;26.13;34.13;99410.97;6150596;23;20021;-77
2021/07/25 08:32:28;;;;;;;2.45;1.60;;;;;;;25.79;35.67;99415.00;6100574;23;20021;-79
2021/07/25 08:34:54;;;;;;;1.08;1.08;;;;;;;25.41;34.17;99424.00;6150659;23;20026;-78
2021/07/25 08:37:20;;;;;;;1.23;1.20;;;;;;;25.30;34.42;99417.31;6124868;23;20027;-77
2021/07/25 08:39:46;;;;;;;1.88;1.20;;;;;;;26.03;34.58;99419.69;6125170;23;20050;-78
2021/07/25 08:42:13;;;;;;;1.33;1.20;;;;;;;26.43;31.79;99413.06;6125006;23;20028;-78
2021/07/25 08:44:49;;;;;;;2.08;1.45;;;;;;;26.17;33.49;99420.41;6125046;23;20018;-79
2021/07/25 08:47:30;;;;;;;1.20;1.13;;;;;;;25.64;33.86;99418.81;6126253;23;20019;-77
2021/07/25 08:50:00;;;;;;;2.38;1.00;;;;;;;25.12;35.33;99436.31;6100914;23;20017;-78
2021/07/25 08:52:30;;;;;;;2.40;1.27;;;;;;;25.20;36.27;99438.84;6125601;23;20013;-77
2021/07/25 08:54:58;;;;;;;3.30;1.48;;;;;;;25.50;34.88;99432.78;6151120;23;20014;-77
2021/07/25 08:57:26;;;;;;;2.58;1.20;;;;;;;25.46;34.26;99426.91;6125188;23;20029;-77
2021/07/25 08:59:53;;;;;;;5.00;1.20;;;;;;;25.72;33.81;99425.94;6125360;23;20056;-77
2021/07/25 09:02:23;;;;;;;4.25;1.00;;;;;;;25.95;33.55;99436.38;6101077;23;20325;-77
2021/07/25 09:04:50;;;;;;;1.70;1.20;;;;;;;26.46;32.65;99440.06;6077087;23;20075;-78
2021/07/25 09:07:21;;;;;;;1.52;1.38;;;;;;;26.64;33.02;99440.13;6100315;23;20479;-78
2021/07/25 09:10:08;;;;;;;1.50;1.23;;;;;;;26.85;31.76;99438.84;6148999;23;20025;-78
2021/07/25 09:12:34;;;;;;;1.10;1.00;;;;;;;27.43;31.64;99432.97;6128647;23;20021;-76
2021/07/25 09:15:11;;;;;;;6.35;1.65;;;;;;;27.29;30.76;99437.75;6077427;23;20143;-78
2021/07/25 09:17:37;;;;;;;1.40;0.98;;;;;;;26.49;32.21;99445.09;6124014;23;20018;-77
2021/07/25 09:20:12;;;;;;;7.18;1.13;;;;;;;26.28;32.73;99443.53;6076296;23;20018;-78
2021/07/25 09:22:39;;;;;;;4.32;1.10;;;;;;;26.12;31.70;99458.63;6254199;22;20067;-77
2021/07/25 09:25:05;;;;;;;1.10;1.00;;;;;;;25.47;32.08;99449.69;6052490;23;20417;-78
2021/07/25 09:27:31;;;;;;;1.83;1.00;;;;;;;26.05;31.55;99447.69;6076162;23;20043;-78
2021/07/25 09:29:57;;;;;;;5.72;1.10;;;;;;;26.62;30.72;99448.53;6123217;23;20049;-78
2021/07/25 09:32:24;;;;;;;1.10;1.00;;;;;;;27.50;30.24;99447.44;6149779;23;20022;-77
2021/07/25 09:34:50;;;;;;;4.80;1.20;;;;;;;27.84;29.50;99445.97;6151002;23;20443;-79
2021/07/25 09:37:18;;;;;;;4.82;1.20;;;;;;;27.25;30.41;99446.69;6125226;23;20017;-79
2021/07/25 09:39:49;;;;;;;1.30;1.17;;;;;;;27.02;30.62;99461.06;6077125;23;20033;-79
2021/07/25 09:42:15;;;;;;;1.50;1.10;;;;;;;27.13;30.26;99460.34;6202541;23;20116;-80
2021/07/25 09:44:51;;;;;;;8.35;1.42;;;;;;;27.40;30.48;99455.38;6125213;23;20021;-79
2021/07/25 09:47:33;;;;;;;1.45;1.05;;;;;;;28.05;27.97;99452.00;6124654;23;20018;-78
2021/07/25 09:50:00;;;;;;;1.45;1.05;;;;;;;28.49;27.82;99447.13;6103160;23;20094;-80
2021/07/25 09:52:53;;;;;;;3.03;1.10;;;;;;;28.56;25.49;99442.34;6126135;23;20036;-78
2021/07/25 09:55:29;;;;;;;1.90;0.90;;;;;;;28.86;25.57;99442.25;6131778;23;20022;-80
2021/07/25 09:57:55;;;;;;;3.58;1.30;;;;;;;28.84;26.51;99458.13;6052487;23;20024;-79
2021/07/25 10:00:21;;;;;;;3.42;1.00;;;;;;;28.67;26.07;99458.03;6100404;23;20025;-79
2021/07/25 10:02:47;;;;;;;3.15;1.05;;;;;;;28.38;26.91;99448.78;6150319;23;20129;-80
2021/07/25 10:05:16;;;;;;;2.75;1.00;;;;;;;27.79;27.76;99456.78;6150120;23;20037;-78
2021/07/25 10:07:43;;;;;;;3.75;1.30;;;;;;;27.25;29.07;99464.00;6150902;22;20021;-81
2021/07/25 10:10:11;;;;;;;3.08;1.10;;;;;;;27.46;27.87;99448.16;6227779;22;20022;-80
2021/07/25 10:12:41;;;;;;;1.23;0.90;;;;;;;27.90;26.41;99452.41;6100757;23;20021;-79
2021/07/25 10:15:11;;;;;;;1.80;1.55;;;;;;;27.27;27.57;99461.88;6150829;23;20020;-79
2021/07/25 10:17:41;;;;;;;3.45;0.90;;;;;;;26.70;27.95;99466.63;6150114;23;20028;-77
2021/07/25 10:20:09;;;;;;;1.02;0.80;;;;;;;27.17;27.99;99471.69;6124690;23;20041;-76
2021/07/25 10:22:36;;;;;;;2.22;0.70;;;;;;;27.67;26.93;99463.28;6100813;23;20022;-77
2021/07/25 10:25:09;;;;;;;0.77;0.73;;;;;;;28.50;25.43;99465.28;6124744;23;20014;-77
2021/07/25 10:27:35;;;;;;;0.95;0.88;;;;;;;28.99;24.95;99463.19;6125235;23;20017;-76
2021/07/25 10:30:08;;;;;;;1.60;0.68;;;;;;;29.00;23.83;99470.41;6124391;23;20021;-79
2021/07/25 10:32:39;;;;;;;0.80;0.80;;;;;;;29.36;23.74;99457.41;6099712;23;20014;-78
2021/07/25 10:35:10;;;;;;;6.80;1.00;;;;;;;29.55;23.32;99456.16;6124652;23;20028;-80
2021/07/25 10:37:37;;;;;;;5.75;1.60;;;;;;;30.22;23.07;99450.91;6149135;23;20017;-75
2021/07/25 10:40:04;;;;;;;1.25;1.15;;;;;;;30.29;23.19;99456.28;6150274;23;20022;-75
2021/07/25 10:42:32;;;;;;;2.50;0.88;;;;;;;29.88;23.35;99465.66;6150687;23;20025;-76
2021/07/25 10:44:58;;;;;;;;;;;;;;;29.67;23.66;99465.25;6151130;23;20437;-76
2021/07/25 10:47:33;;;;;;;3.15;0.85;;;;;;;30.05;23.10;99472.06;6148273;23;19912;-77
2021/07/25 10:50:06;;;;;;;4.22;1.25;;;;;;;29.88;22.66;99476.69;6101180;23;20344;-78
2021/07/25 10:53:05;;;;;;;2.45;1.00;;;;;;;30.30;22.77;99470.88;6101692;23;20025;-79
2021/07/25 10:55:42;;;;;;;0.68;0.68;;;;;;;30.84;21.45;99479.53;6150272;23;20518;-79
2021/07/25 10:58:18;;;;;;;1.63;1.20;;;;;;;30.42;21.80;99477.16;6123127;23;20419;-78
2021/07/25 11:00:49;;;;;;;1.75;0.70;;;;;;;30.45;21.08;99476.66;6054136;23;20025;-79
2021/07/25 11:03:24;;;;;;;0.80;0.80;;;;;;;30.54;20.71;99500.00;6125475;23;20166;-79
2021/07/25 11:05:59;;;;;;;1.42;0.75;;;;;;;29.73;21.70;99480.81;6122551;23;20028;-77
2021/07/25 11:08:46;;;;;;;0.57;0.57;;;;;;;30.66;21.51;99480.63;6151534;23;20020;-79
2021/07/25 11:11:34;;;;;;;5.78;0.70;;;;;;;30.75;21.12;99490.16;6104628;23;20025;-79
2021/07/25 11:14:01;;;;;;;;;;;;;;;30.45;21.24;99474.75;6152192;23;20101;-78
2021/07/25 11:16:30;;;;;;;4.40;0.80;;;;;;;31.46;20.86;99482.13;6149744;23;20012;-78
2021/07/25 11:18:57;;;;;;;0.85;0.85;;;;;;;31.99;19.95;99464.00;6101095;23;20037;-80
2021/07/25 11:21:43;;;;;;;1.25;1.10;;;;;;;32.15;20.03;99478.81;6126125;23;20100;-78
2021/07/25 11:24:18;;;;;;;4.40;0.70;;;;;;;31.98;19.61;99495.53;6126692;23;20112;-79
2021/07/25 11:26:47;;;;;;;1.10;0.70;;;;;;;31.02;19.70;99497.75;6151029;23;20066;-80
2021/07/25 11:29:23;;;;;;;0.60;0.60;;;;;;;30.80;20.12;99493.00;6126003;23;20092;-78
2021/07/25 11:31:50;;;;;;;3.22;0.70;;;;;;;31.47;19.65;99489.31;6126853;23;20500;-79
2021/07/25 11:34:28;;;;;;;1.42;0.73;;;;;;;32.33;19.62;99483.97;6125689;23;20025;-77
2021/07/25 11:36:56;;;;;;;0.95;0.80;;;;;;;32.98;19.49;99484.84;6102818;23;20104;-80
2021/07/25 11:39:22;;;;;;;0.85;0.57;;;;;;;33.13;18.67;99487.72;6126086;23;20510;-78